createdAt,value
2018-05-16T00:01:49.022Z,17.90
2018-05-16T00:03:52.466Z,18.06
2018-05-16T00:05:55.882Z,17.93
2018-05-16T00:07:59.254Z,17.95
2018-05-16T00:10:03.434Z,18.22
2018-05-16T00:12:07.588Z,18.24
2018-05-16T00:14:10.924Z,18.21
2018-05-16T00:16:14.367Z,18.00
2018-05-16T00:18:17.792Z,18.26
2018-05-16T00:20:21.303Z,18.20
2018-05-16T00:22:24.694Z,18.12
2018-05-16T00:24:28.053Z,18.10
2018-05-16T00:26:31.460Z,17.95
2018-05-16T00:28:35.011Z,17.57
2018-05-16T00:30:38.631Z,18.01
2018-05-16T00:32:42.162Z,17.70
2018-05-16T00:34:46.253Z,17.95
2018-05-16T00:36:50.342Z,17.78
2018-05-16T00:38:53.769Z,17.88
2018-05-16T00:40:57.130Z,17.83
2018-05-16T00:43:00.622Z,17.86
2018-05-16T00:45:04.068Z,17.89
2018-05-16T00:47:08.158Z,17.93
2018-05-16T00:49:11.601Z,17.92
2018-05-16T00:51:32.641Z,17.91
2018-05-16T00:53:36.025Z,17.91
2018-05-16T00:55:39.438Z,17.85
2018-05-16T00:57:43.618Z,17.81
2018-05-16T00:59:47.029Z,17.81
2018-05-16T01:01:50.428Z,17.61
2018-05-16T01:03:53.752Z,17.73
2018-05-16T01:05:57.127Z,17.72
2018-05-16T01:08:00.555Z,17.71
2018-05-16T01:10:03.927Z,17.64
2018-05-16T01:12:07.309Z,17.69
2018-05-16T01:14:10.833Z,17.60
2018-05-16T01:16:14.184Z,17.76
2018-05-16T01:18:17.970Z,17.73
2018-05-16T01:20:21.828Z,17.52
2018-05-16T01:22:26.081Z,17.68
2018-05-16T01:24:31.555Z,17.54
2018-05-16T01:26:36.278Z,17.59
2018-05-16T01:28:39.863Z,17.48
2018-05-16T01:30:43.415Z,17.50
2018-05-16T01:32:47.267Z,17.67
2018-05-16T01:34:51.657Z,17.50
2018-05-16T01:36:55.142Z,17.70
2018-05-16T01:38:59.402Z,17.65
2018-05-16T01:41:03.573Z,16.53
2018-05-16T01:43:07.386Z,17.14
2018-05-16T01:45:10.722Z,17.68
2018-05-16T01:47:14.071Z,17.70
2018-05-16T01:49:21.277Z,17.48
2018-05-16T01:51:24.663Z,17.48
2018-05-16T01:53:28.090Z,17.28
2018-05-16T01:55:31.505Z,17.62
2018-05-16T01:57:35.692Z,17.56
2018-05-16T01:59:39.077Z,17.56
2018-05-16T02:01:42.490Z,17.58
2018-05-16T02:03:45.879Z,17.62
2018-05-16T02:05:49.212Z,17.63
2018-05-16T02:07:52.547Z,17.59
2018-05-16T02:09:55.947Z,17.61
2018-05-16T02:11:59.361Z,17.61
2018-05-16T02:14:03.501Z,17.58
2018-05-16T02:16:06.952Z,17.59
2018-05-16T02:18:10.325Z,17.63
2018-05-16T02:20:14.653Z,17.51
2018-05-16T02:22:18.000Z,17.73
2018-05-16T02:24:21.822Z,17.88
2018-05-16T02:26:25.211Z,17.93
2018-05-16T02:28:28.664Z,17.83
2018-05-16T02:30:32.815Z,17.91
2018-05-16T02:32:36.178Z,17.82
2018-05-16T02:34:40.332Z,17.92
2018-05-16T02:36:44.523Z,17.92
2018-05-16T02:38:47.929Z,17.82
2018-05-16T02:40:51.439Z,17.61
2018-05-16T02:42:54.925Z,17.52
2018-05-16T02:44:58.280Z,17.59
2018-05-16T02:47:02.115Z,17.67
2018-05-16T02:49:05.481Z,17.67
2018-05-16T02:51:09.009Z,17.66
2018-05-16T02:53:12.402Z,17.61
2018-05-16T02:55:15.799Z,17.63
2018-05-16T02:59:31.549Z,17.55
2018-05-16T03:01:35.710Z,17.49
2018-05-16T03:03:39.058Z,17.46
2018-05-16T03:05:43.248Z,17.40
2018-05-16T03:07:46.591Z,17.33
2018-05-16T03:09:49.956Z,17.26
2018-05-16T03:11:53.390Z,17.29
2018-05-16T03:13:56.751Z,17.19
2018-05-16T03:16:00.132Z,17.21
2018-05-16T03:18:04.261Z,17.26
2018-05-16T03:20:08.411Z,17.22
2018-05-16T03:22:11.843Z,17.03
2018-05-16T03:24:15.988Z,17.08
2018-05-16T03:26:19.343Z,17.09
2018-05-16T03:28:22.716Z,17.07
2018-05-16T03:30:26.108Z,17.15
2018-05-16T03:32:29.449Z,17.10
2018-05-16T03:34:32.856Z,17.08
2018-05-16T03:36:36.225Z,17.06
2018-05-16T03:38:39.580Z,17.12
2018-05-16T03:40:43.010Z,16.98
2018-05-16T03:42:46.389Z,17.08
2018-05-16T03:44:49.838Z,17.08
2018-05-16T03:46:53.197Z,16.97
2018-05-16T03:48:56.594Z,16.92
2018-05-16T03:51:00.090Z,16.86
2018-05-16T03:53:03.465Z,16.76
2018-05-16T03:55:06.866Z,16.68
2018-05-16T04:00:11.795Z,16.59
2018-05-16T04:02:33.497Z,16.68
2018-05-16T04:04:36.908Z,16.56
2018-05-16T04:06:41.088Z,16.58
2018-05-16T04:08:44.475Z,16.48
2018-05-16T04:10:49.502Z,16.41
2018-05-16T04:12:52.883Z,16.52
2018-05-16T04:14:56.307Z,16.45
2018-05-16T04:16:59.679Z,16.44
2018-05-16T04:19:03.084Z,16.40
2018-05-16T04:21:06.453Z,16.39
2018-05-16T04:23:09.808Z,16.37
2018-05-16T04:25:14.005Z,16.31
2018-05-16T04:27:17.430Z,16.34
2018-05-16T04:29:21.718Z,16.30
2018-05-16T04:31:26.125Z,16.42
2018-05-16T04:33:29.452Z,16.40
2018-05-16T04:35:32.966Z,16.39
2018-05-16T04:37:36.384Z,16.39
2018-05-16T04:39:39.802Z,16.37
2018-05-16T04:41:43.177Z,16.40
2018-05-16T04:43:46.579Z,16.38
2018-05-16T04:45:49.957Z,16.43
2018-05-16T04:47:53.365Z,16.37
2018-05-16T04:49:56.870Z,16.44
2018-05-16T04:52:00.230Z,16.47
2018-05-16T04:54:05.321Z,16.47
2018-05-16T04:56:09.513Z,16.55
2018-05-16T04:58:14.630Z,16.50
2018-05-16T05:00:18.785Z,16.44
2018-05-16T05:02:22.182Z,16.47
2018-05-16T05:04:25.701Z,16.36
2018-05-16T05:06:29.180Z,16.34
2018-05-16T05:08:33.594Z,16.33
2018-05-16T05:10:37.049Z,16.21
2018-05-16T05:12:40.900Z,16.28
2018-05-16T05:14:44.414Z,16.27
2018-05-16T05:16:47.759Z,16.28
2018-05-16T05:18:51.958Z,16.23
2018-05-16T05:20:55.499Z,16.25
2018-05-16T05:22:59.842Z,16.23
2018-05-16T05:25:03.305Z,16.24
2018-05-16T05:27:06.750Z,16.29
2018-05-16T05:29:10.189Z,16.22
2018-05-16T05:31:13.551Z,16.21
2018-05-16T05:35:21.002Z,16.20
2018-05-16T05:37:26.027Z,16.24
2018-05-16T05:39:29.794Z,16.23
2018-05-16T05:41:34.002Z,16.42
2018-05-16T05:43:37.333Z,16.41
2018-05-16T05:45:40.710Z,16.39
2018-05-16T05:47:44.135Z,16.50
2018-05-16T05:49:47.605Z,16.40
2018-05-16T05:51:50.975Z,16.40
2018-05-16T05:53:54.297Z,16.58
2018-05-16T05:56:00.144Z,16.58
2018-05-16T05:58:03.652Z,16.45
2018-05-16T06:00:07.907Z,16.59
2018-05-16T06:02:11.231Z,16.56
2018-05-16T06:04:14.573Z,16.55
2018-05-16T06:06:17.954Z,16.86
2018-05-16T06:08:21.335Z,16.88
2018-05-16T06:10:24.793Z,16.83
2018-05-16T06:12:28.133Z,16.86
2018-05-16T06:14:31.573Z,16.98
2018-05-16T06:16:37.859Z,16.99
2018-05-16T06:18:41.177Z,16.97
2018-05-16T06:20:44.492Z,16.91
2018-05-16T06:22:47.829Z,16.85
2018-05-16T06:24:51.241Z,16.73
2018-05-16T06:26:54.738Z,16.74
2018-05-16T06:28:58.223Z,16.82
2018-05-16T06:31:02.198Z,16.88
2018-05-16T06:33:05.600Z,16.87
2018-05-16T06:35:09.050Z,17.00
2018-05-16T06:37:12.473Z,17.16
2018-05-16T06:39:15.994Z,17.19
2018-05-16T06:41:19.386Z,17.19
2018-05-16T06:43:23.325Z,17.27
2018-05-16T06:45:27.760Z,17.31
2018-05-16T06:47:32.883Z,17.26
2018-05-16T06:49:37.244Z,17.47
2018-05-16T06:51:40.686Z,17.50
2018-05-16T06:53:44.240Z,17.37
2018-05-16T06:55:48.515Z,17.64
2018-05-16T06:57:52.385Z,17.58
2018-05-16T06:59:56.582Z,17.46
2018-05-16T07:02:00.032Z,17.69
2018-05-16T07:04:04.978Z,17.76
2018-05-16T07:06:09.225Z,17.77
2018-05-16T07:08:12.781Z,17.82
2018-05-16T07:10:16.568Z,17.94
2018-05-16T07:12:21.438Z,18.10
2018-05-16T07:14:24.896Z,17.78
2018-05-16T07:16:28.304Z,17.67
2018-05-16T07:18:31.667Z,17.72
2018-05-16T07:20:35.332Z,17.64
2018-05-16T07:22:38.735Z,17.97
2018-05-16T07:24:44.043Z,17.89
2018-05-16T07:26:48.591Z,18.07
2018-05-16T07:28:53.096Z,18.30
2018-05-16T07:30:56.562Z,18.51
2018-05-16T07:33:00.861Z,18.52
2018-05-16T07:35:05.165Z,18.24
2018-05-16T07:37:09.472Z,18.00
2018-05-16T07:39:12.830Z,18.28
2018-05-16T07:41:17.024Z,18.39
2018-05-16T07:43:21.038Z,18.26
2018-05-16T07:45:27.056Z,18.39
2018-05-16T07:47:32.071Z,18.57
2018-05-16T07:49:35.615Z,18.66
2018-05-16T07:51:40.769Z,18.61
2018-05-16T07:53:45.700Z,18.73
2018-05-16T07:55:49.832Z,18.73
2018-05-16T07:57:53.911Z,18.69
2018-05-16T07:59:58.051Z,18.78
2018-05-16T08:02:02.301Z,18.73
2018-05-16T08:04:06.360Z,18.83
2018-05-16T08:06:10.278Z,19.08
2018-05-16T08:08:14.926Z,19.33
2018-05-16T08:10:23.509Z,19.36
2018-05-16T08:12:33.473Z,19.67
2018-05-16T08:14:39.503Z,19.54
2018-05-16T08:16:52.270Z,19.42
2018-05-16T08:18:56.910Z,19.41
2018-05-16T08:21:00.262Z,19.57
2018-05-16T08:23:03.616Z,19.84
2018-05-16T08:25:07.159Z,19.92
2018-05-16T08:27:10.529Z,20.14
2018-05-16T08:29:14.948Z,19.99
2018-05-16T08:31:18.356Z,20.16
2018-05-16T08:33:21.875Z,20.35
2018-05-16T08:35:25.472Z,20.58
2018-05-16T08:37:29.557Z,20.59
2018-05-16T08:39:34.409Z,20.50
2018-05-16T08:41:37.817Z,19.92
2018-05-16T08:43:42.272Z,20.01
2018-05-16T08:45:45.661Z,20.10
2018-05-16T08:47:50.655Z,19.64
2018-05-16T08:49:54.227Z,20.03
2018-05-16T08:51:58.339Z,19.92
2018-05-16T08:54:01.736Z,20.12
2018-05-16T08:56:07.725Z,19.81
2018-05-16T08:58:11.570Z,20.14
2018-05-16T09:00:14.995Z,20.13
2018-05-16T09:02:19.109Z,20.33
2018-05-16T09:04:22.555Z,20.64
2018-05-16T09:06:25.927Z,20.60
2018-05-16T09:08:29.245Z,20.83
2018-05-16T09:10:32.892Z,21.24
2018-05-16T09:12:36.278Z,21.41
2018-05-16T09:14:39.616Z,21.41
2018-05-16T09:16:42.953Z,21.38
2018-05-16T09:18:48.621Z,21.53
2018-05-16T09:20:52.660Z,21.31
2018-05-16T09:22:56.757Z,21.14
2018-05-16T09:25:00.861Z,20.86
2018-05-16T09:27:05.222Z,21.24
2018-05-16T09:29:09.116Z,21.27
2018-05-16T09:31:13.023Z,21.47
2018-05-16T09:33:16.491Z,21.49
2018-05-16T09:35:20.030Z,21.59
2018-05-16T09:37:24.462Z,21.25
2018-05-16T09:39:27.847Z,21.10
2018-05-16T09:41:31.334Z,21.01
2018-05-16T09:43:34.706Z,21.28
2018-05-16T09:45:38.169Z,21.00
2018-05-16T09:47:41.454Z,21.05
2018-05-16T09:49:44.829Z,21.02
2018-05-16T09:51:48.176Z,20.59
2018-05-16T09:53:51.561Z,21.21
2018-05-16T09:55:55.728Z,21.36
2018-05-16T09:57:59.057Z,21.37
2018-05-16T10:00:03.943Z,20.92
2018-05-16T10:02:07.646Z,20.96
2018-05-16T10:04:13.752Z,21.02
2018-05-16T10:06:17.110Z,21.05
2018-05-16T10:08:20.773Z,21.55
2018-05-16T10:10:24.126Z,21.81
2018-05-16T10:12:27.437Z,21.77
2018-05-16T10:14:30.768Z,21.82
2018-05-16T10:16:34.228Z,21.93
2018-05-16T10:18:38.075Z,22.31
2018-05-16T10:20:42.230Z,22.42
2018-05-16T10:22:46.143Z,22.47
2018-05-16T10:24:49.600Z,22.72
2018-05-16T10:26:53.219Z,21.92
2018-05-16T10:28:56.558Z,21.95
2018-05-16T10:30:59.925Z,22.08
2018-05-16T10:33:03.438Z,22.13
2018-05-16T10:35:06.762Z,22.11
2018-05-16T10:37:10.171Z,22.06
2018-05-16T10:39:13.639Z,22.26
2018-05-16T10:41:17.436Z,21.76
2018-05-16T10:43:20.961Z,21.84
2018-05-16T10:45:24.407Z,21.76
2018-05-16T10:47:27.758Z,21.88
2018-05-16T10:49:32.441Z,21.63
2018-05-16T10:51:36.383Z,21.54
2018-05-16T10:53:39.760Z,21.55
2018-05-16T10:55:43.578Z,21.64
2018-05-16T10:57:47.872Z,21.27
2018-05-16T10:59:51.510Z,21.42
2018-05-16T11:01:54.951Z,20.82
2018-05-16T11:03:58.515Z,21.94
2018-05-16T11:06:01.876Z,21.99
2018-05-16T11:08:06.014Z,22.16
2018-05-16T11:10:09.413Z,22.17
2018-05-16T11:12:12.734Z,22.17
2018-05-16T11:14:16.110Z,22.00
2018-05-16T11:16:19.583Z,21.50
2018-05-16T11:18:23.082Z,21.90
2018-05-16T11:20:26.442Z,21.78
2018-05-16T11:22:30.582Z,21.74
2018-05-16T11:24:33.993Z,21.75
2018-05-16T11:26:37.338Z,21.78
2018-05-16T11:28:40.686Z,21.58
2018-05-16T11:30:44.000Z,21.83
2018-05-16T11:32:47.323Z,22.11
2018-05-16T11:34:50.655Z,21.53
2018-05-16T11:36:54.066Z,21.76
2018-05-16T11:38:57.509Z,22.12
2018-05-16T11:41:00.891Z,22.45
2018-05-16T11:43:05.060Z,22.75
2018-05-16T11:45:09.249Z,22.70
2018-05-16T11:47:12.602Z,22.46
2018-05-16T11:49:16.731Z,22.52
2018-05-16T11:51:21.072Z,22.75
2018-05-16T11:53:24.414Z,22.68
2018-05-16T11:55:27.742Z,22.59
2018-05-16T11:57:31.033Z,22.74
2018-05-16T11:59:34.548Z,22.89
2018-05-16T12:01:37.966Z,23.13
2018-05-16T12:03:41.355Z,23.09
2018-05-16T12:05:44.785Z,22.83
2018-05-16T12:07:49.279Z,22.96
2018-05-16T12:09:53.311Z,22.91
2018-05-16T12:11:57.543Z,22.92
2018-05-16T12:14:00.876Z,22.47
2018-05-16T12:16:05.717Z,22.08
2018-05-16T12:18:09.147Z,22.27
2018-05-16T12:20:13.338Z,22.39
2018-05-16T12:22:17.126Z,22.44
2018-05-16T12:24:20.688Z,21.69
2018-05-16T12:26:25.128Z,21.70
2018-05-16T12:28:28.704Z,21.85
2018-05-16T12:30:32.184Z,21.79
2018-05-16T12:32:35.490Z,21.94
2018-05-16T12:34:38.808Z,22.06
2018-05-16T12:36:42.176Z,22.15
2018-05-16T12:38:46.213Z,22.25
2018-05-16T12:40:50.444Z,22.39
2018-05-16T12:43:18.188Z,22.49
2018-05-16T12:45:22.338Z,22.35
2018-05-16T12:47:25.652Z,22.50
2018-05-16T12:49:29.874Z,22.51
2018-05-16T12:51:33.258Z,22.41
2018-05-16T12:53:36.614Z,22.65
2018-05-16T12:55:39.997Z,22.82
2018-05-16T12:57:44.132Z,23.03
2018-05-16T12:59:48.211Z,22.87
2018-05-16T13:01:51.637Z,22.95
2018-05-16T13:03:55.025Z,23.10
2018-05-16T13:05:59.109Z,22.90
2018-05-16T13:08:02.493Z,23.00
2018-05-16T13:10:05.809Z,22.66
2018-05-16T13:12:10.789Z,22.88
2018-05-16T13:14:14.225Z,23.29
2018-05-16T13:16:18.335Z,23.10
2018-05-16T13:18:23.058Z,23.40
2018-05-16T13:20:26.480Z,23.45
2018-05-16T13:22:29.940Z,23.67
2018-05-16T13:24:33.282Z,23.56
2018-05-16T13:26:37.827Z,23.72
2018-05-16T13:28:41.141Z,23.98
2018-05-16T13:30:44.576Z,23.96
2018-05-16T13:32:48.077Z,24.02
2018-05-16T13:34:51.746Z,24.09
2018-05-16T13:36:55.635Z,23.91
2018-05-16T13:38:59.084Z,24.01
2018-05-16T13:41:03.134Z,24.07
2018-05-16T13:43:06.495Z,23.69
2018-05-16T13:45:10.041Z,23.48
2018-05-16T13:47:13.476Z,23.76
2018-05-16T13:49:16.927Z,23.68
2018-05-16T13:51:20.458Z,23.73
2018-05-16T13:53:24.198Z,23.57
2018-05-16T13:55:29.172Z,23.40
2018-05-16T13:57:33.418Z,23.25
2018-05-16T13:59:36.775Z,23.17
2018-05-16T14:01:40.172Z,23.26
2018-05-16T14:03:45.959Z,22.78
2018-05-16T14:05:49.319Z,23.40
2018-05-16T14:07:55.253Z,23.56
2018-05-16T14:09:58.635Z,23.37
2018-05-16T14:12:01.993Z,23.49
2018-05-16T14:14:05.782Z,23.47
2018-05-16T14:16:09.253Z,23.45
2018-05-16T14:18:12.749Z,23.87
2018-05-16T14:20:16.857Z,23.64
2018-05-16T14:22:20.967Z,23.60
2018-05-16T14:24:25.064Z,23.91
2018-05-16T14:26:28.430Z,23.80
2018-05-16T14:28:31.761Z,23.70
2018-05-16T14:30:35.106Z,23.90
2018-05-16T14:32:38.726Z,23.51
2018-05-16T14:34:42.133Z,23.51
2018-05-16T14:36:45.555Z,23.52
2018-05-16T14:38:49.798Z,23.77
2018-05-16T14:40:53.116Z,23.87
2018-05-16T14:42:56.832Z,23.82
2018-05-16T14:45:00.109Z,23.65
2018-05-16T14:47:03.524Z,23.64
2018-05-16T14:49:07.128Z,23.43
2018-05-16T14:51:11.246Z,23.33
2018-05-16T14:53:14.597Z,23.27
2018-05-16T14:55:18.082Z,22.69
2018-05-16T14:57:21.506Z,23.12
2018-05-16T14:59:24.909Z,22.82
2018-05-16T15:01:28.304Z,23.13
2018-05-16T15:03:31.761Z,23.06
2018-05-16T15:05:35.093Z,22.85
2018-05-16T15:07:39.275Z,22.81
2018-05-16T15:09:42.641Z,22.74
2018-05-16T15:11:46.123Z,22.79
2018-05-16T15:13:49.507Z,22.72
2018-05-16T15:15:52.924Z,22.55
2018-05-16T15:17:56.328Z,22.29
2018-05-16T15:19:59.671Z,22.29
2018-05-16T15:22:03.429Z,22.39
2018-05-16T15:24:06.988Z,22.51
2018-05-16T15:26:11.668Z,22.30
2018-05-16T15:28:15.207Z,22.29
2018-05-16T15:30:18.549Z,22.14
2018-05-16T15:32:21.913Z,22.13
2018-05-16T15:34:25.448Z,22.20
2018-05-16T15:36:30.634Z,22.11
2018-05-16T15:38:33.980Z,22.15
2018-05-16T15:40:39.053Z,21.50
2018-05-16T15:42:42.700Z,21.45
2018-05-16T15:44:46.143Z,21.81
2018-05-16T15:46:49.940Z,21.95
2018-05-16T15:48:53.360Z,21.81
2018-05-16T15:50:56.716Z,21.97
2018-05-16T15:53:00.179Z,21.89
2018-05-16T15:55:03.635Z,21.46
2018-05-16T15:57:07.116Z,21.63
2018-05-16T15:59:11.446Z,21.61
2018-05-16T16:01:15.623Z,21.49
2018-05-16T16:03:19.175Z,21.90
2018-05-16T16:05:23.491Z,22.18
2018-05-16T16:07:28.037Z,22.56
2018-05-16T16:09:31.367Z,22.57
2018-05-16T16:11:34.835Z,22.80
2018-05-16T16:13:38.596Z,22.48
2018-05-16T16:15:42.064Z,22.19
2018-05-16T16:17:45.438Z,22.07
2018-05-16T16:19:49.552Z,21.74
2018-05-16T16:21:52.944Z,21.63
2018-05-16T16:23:56.303Z,21.74
2018-05-16T16:25:59.658Z,22.02
2018-05-16T16:28:02.990Z,21.29
2018-05-16T16:30:06.374Z,21.24
2018-05-16T16:32:09.925Z,21.54
2018-05-16T16:34:13.902Z,21.52
2018-05-16T16:36:17.281Z,21.35
2018-05-16T16:38:21.224Z,21.65
2018-05-16T16:40:24.854Z,21.42
2018-05-16T16:42:28.336Z,21.20
2018-05-16T16:44:31.767Z,21.27
2018-05-16T16:46:35.885Z,21.57
2018-05-16T16:48:40.056Z,22.09
2018-05-16T16:50:43.653Z,22.24
2018-05-16T16:52:47.106Z,22.44
2018-05-16T16:54:51.789Z,23.03
2018-05-16T16:56:55.172Z,23.48
2018-05-16T16:58:58.508Z,23.66
2018-05-16T17:01:02.703Z,23.72
2018-05-16T17:03:06.110Z,23.84
2018-05-16T17:05:10.217Z,23.67
2018-05-16T17:07:13.731Z,23.49
2018-05-16T17:09:17.324Z,23.17
2018-05-16T17:11:20.703Z,23.14
2018-05-16T17:13:24.928Z,22.90
2018-05-16T17:15:29.230Z,22.35
2018-05-16T17:17:32.696Z,22.65
2018-05-16T17:19:36.701Z,22.50
2018-05-16T17:21:40.233Z,22.09
2018-05-16T17:23:43.630Z,21.90
2018-05-16T17:25:47.979Z,22.55
2018-05-16T17:27:51.382Z,22.92
2018-05-16T17:29:54.727Z,23.12
2018-05-16T17:31:58.081Z,23.24
2018-05-16T17:34:01.619Z,23.43
2018-05-16T17:36:05.131Z,22.91
2018-05-16T17:38:08.637Z,21.25
2018-05-16T17:40:12.112Z,20.46
2018-05-16T17:42:15.496Z,19.98
2018-05-16T17:44:20.178Z,19.53
2018-05-16T17:46:23.692Z,19.29
2018-05-16T17:48:27.226Z,19.09
2018-05-16T17:50:31.699Z,18.88
2018-05-16T17:52:35.971Z,18.66
2018-05-16T17:54:40.090Z,18.51
2018-05-16T17:56:43.964Z,18.35
2018-05-16T17:58:49.558Z,18.28
2018-05-16T18:03:38.327Z,18.19
2018-05-16T18:05:43.104Z,18.20
2018-05-16T18:08:20.499Z,18.10
2018-05-16T18:10:25.507Z,18.10
2018-05-16T18:12:30.033Z,18.23
2018-05-16T18:17:29.085Z,18.26
2018-05-16T18:19:32.533Z,18.63
2018-05-16T18:21:36.041Z,18.54
2018-05-16T18:23:39.426Z,18.53
2018-05-16T18:25:42.876Z,18.58
2018-05-16T18:27:46.310Z,18.61
2018-05-16T18:29:49.682Z,18.55
2018-05-16T18:31:53.236Z,18.60
2018-05-16T18:33:56.596Z,18.60
2018-05-16T18:36:00.039Z,18.39
2018-05-16T18:38:04.203Z,18.56
2018-05-16T18:40:07.658Z,18.59
2018-05-16T18:42:14.254Z,18.44
2018-05-16T18:44:18.042Z,18.33
2018-05-16T18:46:21.779Z,18.46
2018-05-16T18:48:27.745Z,18.47
2018-05-16T18:50:31.245Z,18.45
2018-05-16T18:52:37.831Z,18.30
2018-05-16T18:56:51.335Z,18.00
2018-05-16T18:59:00.128Z,17.78
2018-05-16T19:01:03.646Z,17.88
2018-05-16T19:03:07.465Z,18.20
2018-05-16T19:07:18.349Z,18.20
2018-05-16T19:09:22.661Z,18.00
2018-05-16T19:11:26.128Z,18.37
2018-05-16T19:13:30.860Z,18.18
2018-05-16T19:15:34.453Z,18.12
2018-05-16T19:17:38.777Z,18.24
2018-05-16T19:19:43.076Z,18.60
2018-05-16T19:21:46.493Z,18.21
2018-05-16T19:23:50.035Z,18.10
2018-05-16T19:25:53.585Z,18.01
2018-05-16T19:27:57.995Z,18.08
2018-05-16T19:30:01.411Z,17.86
2018-05-16T19:32:04.869Z,17.85
2018-05-16T19:34:10.164Z,17.73
2018-05-16T19:36:14.615Z,17.70
2018-05-16T19:38:18.088Z,17.66
2018-05-16T19:40:21.626Z,17.93
2018-05-16T19:42:25.050Z,18.21
2018-05-16T19:44:28.442Z,18.08
2018-05-16T19:46:31.844Z,18.04
2018-05-16T19:48:35.281Z,17.74
2018-05-16T19:50:40.451Z,17.63
2018-05-16T19:52:43.964Z,17.68
2018-05-16T19:54:47.434Z,17.58
2018-05-16T19:56:50.873Z,17.75
2018-05-16T19:58:55.141Z,17.36
2018-05-16T20:00:58.995Z,17.44
2018-05-16T20:03:03.250Z,17.42
2018-05-16T20:05:06.941Z,17.42
2018-05-16T20:07:10.671Z,17.36
2018-05-16T20:09:14.140Z,17.25
2018-05-16T20:11:18.298Z,17.06
2018-05-16T20:13:21.677Z,16.86
2018-05-16T20:15:25.806Z,16.95
2018-05-16T20:17:29.311Z,16.79
2018-05-16T20:19:32.697Z,17.01
2018-05-16T20:21:36.106Z,16.87
2018-05-16T20:23:40.318Z,16.99
2018-05-16T20:25:43.701Z,16.98
2018-05-16T20:27:47.838Z,17.03
2018-05-16T20:29:51.277Z,16.84
2018-05-16T20:31:54.750Z,16.75
2018-05-16T20:33:58.310Z,16.70
2018-05-16T20:36:02.831Z,16.55
2018-05-16T20:38:06.374Z,16.57
2018-05-16T20:40:10.676Z,16.51
2018-05-16T20:42:14.039Z,16.47
2018-05-16T20:44:17.421Z,16.50
2018-05-16T20:46:20.791Z,16.34
2018-05-16T20:48:24.206Z,16.19
2018-05-16T20:50:27.741Z,16.08
2018-05-16T20:52:31.115Z,16.12
2018-05-16T20:54:35.680Z,16.30
2018-05-16T20:56:40.070Z,16.11
2018-05-16T20:58:43.658Z,16.12
2018-05-16T21:00:46.982Z,16.19
2018-05-16T21:02:51.344Z,16.15
2018-05-16T21:04:58.228Z,16.09
2018-05-16T21:07:18.207Z,16.03
2018-05-16T21:09:24.347Z,15.91
2018-05-16T21:11:28.314Z,15.96
2018-05-16T21:13:32.569Z,15.75
2018-05-16T21:15:36.014Z,15.55
2018-05-16T21:17:39.442Z,15.43
2018-05-16T21:19:42.811Z,15.57
2018-05-16T21:21:47.090Z,15.29
2018-05-16T21:23:50.463Z,15.51
2018-05-16T21:25:54.054Z,14.85
2018-05-16T21:27:57.396Z,15.49
2018-05-16T21:30:00.786Z,15.55
2018-05-16T21:32:04.304Z,15.44
2018-05-16T21:34:07.680Z,15.57
2018-05-16T21:36:11.010Z,15.12
2018-05-16T21:38:14.465Z,15.36
2018-05-16T21:40:17.788Z,15.21
2018-05-16T21:42:21.149Z,15.12
2018-05-16T21:44:25.392Z,15.02
2018-05-16T21:46:28.988Z,15.01
2018-05-16T21:48:32.641Z,14.98
2018-05-16T21:50:36.095Z,14.61
2018-05-16T21:52:39.463Z,14.43
2018-05-16T21:54:42.889Z,15.05
2018-05-16T21:56:46.376Z,14.64
2018-05-16T21:58:50.463Z,14.71
2018-05-16T22:00:53.873Z,14.71
2018-05-16T22:02:57.313Z,14.29
2018-05-16T22:05:00.720Z,14.52
2018-05-16T22:07:04.187Z,14.44
2018-05-16T22:09:07.659Z,14.49
2018-05-16T22:11:10.985Z,14.44
2018-05-16T22:13:14.382Z,14.58
2018-05-16T22:15:17.818Z,14.27
2018-05-16T22:17:21.902Z,13.68
2018-05-16T22:19:25.434Z,14.04
2018-05-16T22:21:29.785Z,13.66
2018-05-16T22:23:33.144Z,14.15
2018-05-16T22:25:36.521Z,13.93
2018-05-16T22:27:39.976Z,14.03
2018-05-16T22:29:43.283Z,13.97
2018-05-16T22:31:52.047Z,14.05
2018-05-16T22:34:01.063Z,13.90
2018-05-16T22:36:09.867Z,14.04
2018-05-16T22:38:19.499Z,13.83
2018-05-16T22:40:28.370Z,13.99
2018-05-16T22:42:31.121Z,13.75
2018-05-16T22:47:12.956Z,13.71
2018-05-16T22:49:16.375Z,13.59
2018-05-16T22:51:19.916Z,12.67
2018-05-16T22:53:23.302Z,13.56
2018-05-16T22:55:26.677Z,13.48
2018-05-16T22:57:30.087Z,13.26
2018-05-16T22:59:33.478Z,13.38
2018-05-16T23:01:36.780Z,13.41
2018-05-16T23:03:40.182Z,13.49
2018-05-16T23:05:43.537Z,13.12
2018-05-16T23:07:46.918Z,13.52
2018-05-16T23:09:50.364Z,13.18
2018-05-16T23:11:53.889Z,13.08
2018-05-16T23:13:57.533Z,12.44
2018-05-16T23:16:01.771Z,12.96
2018-05-16T23:18:05.241Z,13.08
2018-05-16T23:20:10.004Z,13.29
2018-05-16T23:22:14.253Z,13.06
2018-05-16T23:24:17.592Z,13.21
2018-05-16T23:26:20.914Z,13.00
2018-05-16T23:28:24.249Z,13.03
2018-05-16T23:30:28.385Z,13.24
2018-05-16T23:32:31.704Z,13.05
2018-05-16T23:34:35.007Z,13.00
2018-05-16T23:36:38.337Z,13.01
2018-05-16T23:38:42.446Z,13.05
2018-05-16T23:40:45.801Z,12.79
2018-05-16T23:42:49.316Z,13.23
2018-05-16T23:44:52.648Z,12.91
2018-05-16T23:46:56.063Z,12.61
2018-05-16T23:49:00.267Z,12.62
2018-05-16T23:51:03.644Z,12.64
2018-05-16T23:53:07.011Z,12.71
2018-05-16T23:55:11.094Z,12.65
2018-05-16T23:57:14.427Z,12.52
2018-05-16T23:59:18.507Z,12.51
